createdAt,value
2018-10-15T00:00:37.540Z,18.03
2018-10-15T00:01:37.534Z,17.95
2018-10-15T00:02:37.528Z,18.07
2018-10-15T00:03:37.522Z,17.97
2018-10-15T00:04:37.521Z,18.00
2018-10-15T00:05:37.517Z,17.95
2018-10-15T00:06:37.512Z,17.95
2018-10-15T00:07:37.505Z,17.97
2018-10-15T00:08:37.497Z,17.95
2018-10-15T00:09:37.498Z,17.94
2018-10-15T00:10:37.487Z,17.95
2018-10-15T00:11:37.493Z,17.94
2018-10-15T00:12:37.477Z,17.95
2018-10-15T00:13:37.476Z,17.94
2018-10-15T00:14:37.476Z,17.89
2018-10-15T00:15:37.472Z,17.86
2018-10-15T00:16:37.471Z,17.89
2018-10-15T00:17:37.458Z,17.90
2018-10-15T00:18:37.458Z,17.92
2018-10-15T00:19:37.452Z,17.89
2018-10-15T00:20:37.446Z,17.89
2018-10-15T00:21:37.442Z,17.80
2018-10-15T00:22:37.437Z,17.80
2018-10-15T00:23:37.433Z,17.86
2018-10-15T00:24:37.456Z,17.79
2018-10-15T00:25:37.437Z,17.80
2018-10-15T00:26:37.421Z,17.82
2018-10-15T00:27:37.416Z,17.79
2018-10-15T00:28:37.414Z,17.71
2018-10-15T00:29:37.413Z,17.83
2018-10-15T00:30:37.402Z,17.68
2018-10-15T00:31:37.396Z,17.76
2018-10-15T00:32:37.397Z,17.65
2018-10-15T00:33:37.395Z,17.72
2018-10-15T00:34:37.382Z,17.76
2018-10-15T00:35:37.382Z,17.70
2018-10-15T00:36:37.374Z,17.57
2018-10-15T00:37:37.368Z,17.64
2018-10-15T00:38:37.365Z,17.59
2018-10-15T00:39:37.357Z,17.60
2018-10-15T00:40:37.356Z,17.57
2018-10-15T00:41:37.352Z,17.59
2018-10-15T00:42:37.345Z,17.59
2018-10-15T00:43:37.341Z,17.52
2018-10-15T00:44:37.337Z,17.54
2018-10-15T00:45:37.354Z,17.51
2018-10-15T00:46:37.328Z,17.54
2018-10-15T00:47:37.331Z,17.51
2018-10-15T00:48:37.323Z,17.51
2018-10-15T00:49:37.315Z,17.42
2018-10-15T00:50:37.309Z,17.42
2018-10-15T00:51:37.307Z,17.44
2018-10-15T00:52:37.308Z,17.46
2018-10-15T00:53:37.293Z,17.45
2018-10-15T00:54:37.300Z,17.45
2018-10-15T00:55:37.294Z,17.41
2018-10-15T00:56:37.288Z,17.36
2018-10-15T00:57:37.275Z,17.38
2018-10-15T00:58:37.273Z,17.41
2018-10-15T00:59:37.278Z,17.27
2018-10-15T01:00:37.265Z,17.29
2018-10-15T01:01:37.273Z,17.29
2018-10-15T01:02:37.262Z,17.20
2018-10-15T01:03:37.267Z,17.20
2018-10-15T01:04:37.251Z,17.16
2018-10-15T01:05:37.244Z,17.15
2018-10-15T01:06:37.241Z,17.11
2018-10-15T01:07:37.234Z,17.11
2018-10-15T01:08:37.234Z,17.11
2018-10-15T01:09:37.239Z,17.11
2018-10-15T01:10:37.223Z,17.05
2018-10-15T01:11:37.213Z,17.08
2018-10-15T01:12:37.212Z,17.06
2018-10-15T01:13:37.204Z,17.08
2018-10-15T01:14:37.211Z,17.09
2018-10-15T01:15:37.206Z,17.11
2018-10-15T01:16:37.193Z,17.12
2018-10-15T01:17:37.192Z,17.06
2018-10-15T01:18:37.184Z,17.01
2018-10-15T01:19:37.193Z,17.15
2018-10-15T01:20:37.176Z,16.99
2018-10-15T01:21:37.169Z,17.04
2018-10-15T01:22:37.164Z,17.04
2018-10-15T01:23:37.165Z,17.08
2018-10-15T01:24:37.162Z,17.06
2018-10-15T01:25:37.151Z,17.12
2018-10-15T01:26:37.144Z,17.04
2018-10-15T01:27:37.145Z,17.06
2018-10-15T01:28:37.140Z,17.04
2018-10-15T01:29:37.134Z,17.02
2018-10-15T01:30:37.134Z,17.08
2018-10-15T01:31:37.126Z,17.02
2018-10-15T01:32:37.123Z,17.04
2018-10-15T01:33:37.114Z,16.96
2018-10-15T01:34:37.109Z,16.87
2018-10-15T01:35:37.113Z,17.01
2018-10-15T01:36:37.096Z,17.01
2018-10-15T01:37:37.102Z,16.96
2018-10-15T01:38:37.091Z,16.99
2018-10-15T01:39:37.089Z,16.91
2018-10-15T01:40:37.081Z,16.83
2018-10-15T01:41:37.076Z,16.87
2018-10-15T01:42:37.071Z,16.83
2018-10-15T01:43:37.066Z,16.86
2018-10-15T01:44:37.062Z,16.87
2018-10-15T01:45:37.074Z,16.84
2018-10-15T01:46:37.053Z,16.83
2018-10-15T01:47:37.051Z,16.86
2018-10-15T01:48:37.041Z,16.86
2018-10-15T01:49:37.039Z,16.81
2018-10-15T01:50:37.035Z,16.89
2018-10-15T01:51:37.027Z,16.86
2018-10-15T01:52:37.028Z,16.83
2018-10-15T01:53:37.014Z,16.81
2018-10-15T01:54:37.013Z,16.86
2018-10-15T01:55:37.997Z,16.93
2018-10-15T01:56:37.004Z,16.81
2018-10-15T01:57:37.002Z,16.86
2018-10-15T01:58:36.994Z,16.86
2018-10-15T01:59:36.994Z,16.79
2018-10-15T02:00:36.983Z,16.86
2018-10-15T02:01:36.984Z,16.72
2018-10-15T02:02:36.975Z,16.69
2018-10-15T02:03:36.970Z,16.71
2018-10-15T02:04:36.965Z,16.75
2018-10-15T02:05:36.960Z,16.71
2018-10-15T02:06:36.964Z,16.68
2018-10-15T02:07:36.952Z,16.60
2018-10-15T02:08:36.949Z,16.50
2018-10-15T02:09:36.939Z,16.56
2018-10-15T02:10:36.935Z,16.54
2018-10-15T02:11:36.933Z,16.64
2018-10-15T02:12:36.927Z,16.60
2018-10-15T02:13:36.925Z,16.57
2018-10-15T02:14:36.921Z,16.56
2018-10-15T02:15:36.912Z,16.43
2018-10-15T02:16:36.908Z,16.56
2018-10-15T02:17:36.900Z,16.60
2018-10-15T02:18:36.896Z,16.60
2018-10-15T02:19:36.903Z,16.50
2018-10-15T02:20:36.892Z,16.54
2018-10-15T02:21:36.898Z,16.47
2018-10-15T02:22:36.885Z,16.50
2018-10-15T02:23:36.883Z,16.43
2018-10-15T02:24:36.870Z,16.60
2018-10-15T02:25:36.862Z,16.49
2018-10-15T02:26:36.863Z,16.49
2018-10-15T02:27:36.856Z,16.51
2018-10-15T02:28:36.853Z,16.47
2018-10-15T02:29:36.856Z,16.53
2018-10-15T02:30:36.852Z,16.51
2018-10-15T02:31:36.836Z,16.43
2018-10-15T02:32:36.835Z,16.49
2018-10-15T02:33:36.825Z,16.47
2018-10-15T02:34:36.820Z,16.42
2018-10-15T02:35:36.818Z,16.43
2018-10-15T02:36:36.812Z,16.47
2018-10-15T02:37:36.805Z,16.46
2018-10-15T02:38:36.802Z,16.43
2018-10-15T02:39:36.796Z,16.41
2018-10-15T02:40:36.794Z,16.38
2018-10-15T02:41:36.806Z,16.46
2018-10-15T02:42:36.785Z,16.36
2018-10-15T02:43:36.778Z,16.36
2018-10-15T02:44:36.776Z,16.35
